createdAt,value
2019-03-16T00:00:33.673Z,3.62
2019-03-16T00:03:01.957Z,3.90
2019-03-16T00:05:30.183Z,3.70
2019-03-16T00:08:16.670Z,3.83
2019-03-16T00:11:03.302Z,3.27
2019-03-16T00:13:49.964Z,3.80
2019-03-16T00:16:18.369Z,3.07
2019-03-16T00:21:50.580Z,3.13
2019-03-16T00:24:18.829Z,3.60
2019-03-16T00:27:05.016Z,3.30
2019-03-16T00:29:51.580Z,3.33
2019-03-16T00:32:19.820Z,3.47
2019-03-16T00:34:48.080Z,3.30
2019-03-16T00:37:16.333Z,3.43
2019-03-16T00:39:44.565Z,3.23
2019-03-16T00:42:12.869Z,3.50
2019-03-16T00:44:41.148Z,3.60
2019-03-16T00:47:09.413Z,3.87
2019-03-16T00:49:38.074Z,3.70
2019-03-16T00:52:24.677Z,3.90
2019-03-16T00:54:52.940Z,3.60
2019-03-16T00:57:39.317Z,3.77
2019-03-16T01:00:12.407Z,3.53
2019-03-16T01:02:40.690Z,3.90
2019-03-16T01:05:08.930Z,3.57
2019-03-16T01:07:37.172Z,4.00
2019-03-16T01:10:07.578Z,3.57
2019-03-16T01:12:35.801Z,3.67
2019-03-16T01:18:09.574Z,3.80
2019-03-16T01:20:37.904Z,3.40
2019-03-16T01:23:06.173Z,3.53
2019-03-16T01:28:20.724Z,3.40
2019-03-16T01:31:07.201Z,3.70
2019-03-16T01:33:35.457Z,3.60
2019-03-16T01:38:49.727Z,3.50
2019-03-16T01:41:17.990Z,3.33
2019-03-16T01:43:46.235Z,3.13
2019-03-16T01:52:10.534Z,3.60
2019-03-16T01:54:38.792Z,3.13
2019-03-16T01:57:07.722Z,3.30
2019-03-16T01:59:36.095Z,3.50
2019-03-16T02:02:22.544Z,3.40
2019-03-16T02:04:50.773Z,3.13
2019-03-16T02:07:19.053Z,3.70
2019-03-16T02:09:47.293Z,3.20
2019-03-16T02:12:15.565Z,3.40
2019-03-16T02:14:43.809Z,3.00
2019-03-16T02:17:12.052Z,3.30
2019-03-16T02:19:40.305Z,3.43
2019-03-16T02:22:26.712Z,3.40
2019-03-16T02:25:13.263Z,3.33
2019-03-16T02:27:41.521Z,3.40
2019-03-16T02:30:11.293Z,3.57
2019-03-16T02:32:39.550Z,3.43
2019-03-16T02:35:08.089Z,3.67
2019-03-16T02:37:36.359Z,3.00
2019-03-16T02:40:06.753Z,3.27
2019-03-16T02:42:35.029Z,3.63
2019-03-16T02:45:04.062Z,3.00
2019-03-16T02:47:32.309Z,2.97
2019-03-16T02:52:49.717Z,3.30
2019-03-16T02:55:53.018Z,3.17
2019-03-16T02:58:21.245Z,2.93
2019-03-16T03:00:49.498Z,3.13
2019-03-16T03:03:29.140Z,3.47
2019-03-16T03:06:05.914Z,3.40
2019-03-16T03:08:34.171Z,3.07
2019-03-16T03:11:02.429Z,3.30
2019-03-16T03:13:30.688Z,3.40
2019-03-16T03:16:35.596Z,3.27
2019-03-16T03:19:03.853Z,3.50
2019-03-16T03:21:32.237Z,3.30
2019-03-16T03:24:18.501Z,3.30
2019-03-16T03:27:04.800Z,3.10
2019-03-16T03:29:33.409Z,3.30
2019-03-16T03:32:01.666Z,3.00
2019-03-16T03:34:48.419Z,3.53
2019-03-16T03:37:16.730Z,3.73
2019-03-16T03:40:03.086Z,3.13
2019-03-16T03:42:49.634Z,3.00
2019-03-16T03:48:04.365Z,2.97
2019-03-16T03:50:32.659Z,3.10
2019-03-16T03:53:18.820Z,3.33
2019-03-16T03:55:47.080Z,3.00
2019-03-16T03:58:33.152Z,3.50
2019-03-16T04:01:01.373Z,3.23
2019-03-16T04:03:48.162Z,3.50
2019-03-16T04:06:34.537Z,3.03
2019-03-16T04:09:04.292Z,3.10
2019-03-16T04:11:32.610Z,3.07
2019-03-16T04:14:00.854Z,2.93
2019-03-16T04:16:47.065Z,3.10
2019-03-16T04:19:15.335Z,3.60
2019-03-16T04:21:43.573Z,3.03
2019-03-16T04:24:30.098Z,3.20
2019-03-16T04:30:02.944Z,3.17
2019-03-16T04:32:49.219Z,3.10
2019-03-16T04:40:49.510Z,3.00
2019-03-16T04:43:17.765Z,2.60
2019-03-16T04:45:46.017Z,2.73
2019-03-16T04:48:14.270Z,3.07
2019-03-16T04:50:42.544Z,3.10
2019-03-16T04:53:10.801Z,2.90
2019-03-16T04:55:39.045Z,2.63
2019-03-16T04:58:07.328Z,3.40
2019-03-16T05:00:35.560Z,3.17
2019-03-16T05:03:03.820Z,2.80
2019-03-16T05:05:51.748Z,3.00
2019-03-16T05:08:38.602Z,3.17
2019-03-16T05:11:06.873Z,2.97
2019-03-16T05:13:35.300Z,2.90
2019-03-16T05:16:03.520Z,3.20
2019-03-16T05:19:08.177Z,3.00
2019-03-16T05:21:36.460Z,3.33
2019-03-16T05:24:04.710Z,3.40
2019-03-16T05:26:51.126Z,3.30
2019-03-16T05:29:37.760Z,2.80
2019-03-16T05:32:06.013Z,2.93
2019-03-16T05:34:56.795Z,3.40
2019-03-16T05:37:22.701Z,3.10
2019-03-16T05:39:50.991Z,2.57
2019-03-16T05:45:42.320Z,2.90
2019-03-16T05:48:17.912Z,2.73
2019-03-16T05:50:46.293Z,2.70
2019-03-16T05:53:14.537Z,2.70
2019-03-16T05:55:42.817Z,2.60
2019-03-16T05:58:11.069Z,2.53
2019-03-16T06:01:15.488Z,2.80
2019-03-16T06:03:43.757Z,2.60
2019-03-16T06:06:30.162Z,2.70
2019-03-16T06:08:58.400Z,2.80
2019-03-16T06:11:26.677Z,2.40
2019-03-16T06:13:54.893Z,1.87
2019-03-16T06:16:23.141Z,2.67
2019-03-16T06:19:27.142Z,2.10
2019-03-16T06:21:55.433Z,1.87
2019-03-16T06:24:23.680Z,1.93
2019-03-16T06:27:09.732Z,2.20
2019-03-16T06:29:37.960Z,2.30
2019-03-16T06:32:24.396Z,2.07
2019-03-16T06:34:52.687Z,2.00
2019-03-16T06:37:20.991Z,2.00
2019-03-16T06:39:49.255Z,1.97
2019-03-16T06:42:35.721Z,1.97
2019-03-16T06:45:22.836Z,2.07
2019-03-16T06:47:54.459Z,1.43
2019-03-16T06:50:39.337Z,1.97
2019-03-16T06:53:07.618Z,2.07
2019-03-16T06:55:35.868Z,1.57
2019-03-16T06:58:04.115Z,2.03
2019-03-16T07:00:32.365Z,1.43
2019-03-16T07:03:18.951Z,1.47
2019-03-16T07:06:05.562Z,1.63
2019-03-16T07:08:52.376Z,1.27
2019-03-16T07:11:20.600Z,1.40
2019-03-16T07:14:06.688Z,1.53
2019-03-16T07:19:20.800Z,1.23
2019-03-16T07:21:49.049Z,1.33
2019-03-16T07:24:36.025Z,1.77
2019-03-16T07:27:04.290Z,1.30
2019-03-16T07:32:18.945Z,1.13
2019-03-16T07:34:47.196Z,1.20
2019-03-16T07:37:33.972Z,1.40
2019-03-16T07:40:02.408Z,1.33
2019-03-16T07:42:30.660Z,1.50
2019-03-16T07:45:07.973Z,1.23
2019-03-16T07:47:28.875Z,0.90
2019-03-16T07:49:57.922Z,1.53
2019-03-16T07:52:26.197Z,1.53
2019-03-16T07:55:12.855Z,1.10
2019-03-16T07:57:41.200Z,1.40
2019-03-16T08:00:27.566Z,1.73
2019-03-16T08:02:55.821Z,1.60
2019-03-16T08:08:28.614Z,1.67
2019-03-16T08:10:56.877Z,1.63
2019-03-16T08:13:43.409Z,1.43
2019-03-16T08:16:11.696Z,1.63
2019-03-16T08:18:57.888Z,1.57
2019-03-16T08:21:44.376Z,1.70
2019-03-16T08:24:30.780Z,1.50
2019-03-16T08:26:59.027Z,1.30
2019-03-16T08:29:27.292Z,1.60
2019-03-16T08:31:55.587Z,1.83
2019-03-16T08:34:42.021Z,1.43
2019-03-16T08:37:10.294Z,1.77
2019-03-16T08:39:38.568Z,1.77
2019-03-16T08:42:24.728Z,1.17
2019-03-16T08:45:11.220Z,1.23
2019-03-16T08:50:25.936Z,1.57
2019-03-16T08:53:12.325Z,1.40
2019-03-16T08:55:40.595Z,1.90
2019-03-16T08:58:08.855Z,1.67
2019-03-16T09:00:37.132Z,1.40
2019-03-16T09:03:05.502Z,1.20
2019-03-16T09:05:33.760Z,1.07
2019-03-16T09:08:20.844Z,1.43
2019-03-16T09:10:49.121Z,1.27
2019-03-16T09:13:17.366Z,1.60
2019-03-16T09:15:45.629Z,1.37
2019-03-16T09:24:22.254Z,1.53
2019-03-16T09:27:08.933Z,1.80
2019-03-16T09:29:37.201Z,1.57
2019-03-16T09:32:05.464Z,1.90
2019-03-16T09:34:33.754Z,1.70
2019-03-16T09:37:02.013Z,1.90
2019-03-16T09:39:48.837Z,2.07
2019-03-16T09:42:35.372Z,1.50
2019-03-16T09:45:03.778Z,2.13
2019-03-16T09:47:50.141Z,2.00
2019-03-16T09:50:36.753Z,1.60
2019-03-16T09:53:05.016Z,1.90
2019-03-16T09:55:51.137Z,2.00
2019-03-16T09:58:37.796Z,1.90
2019-03-16T10:01:24.487Z,2.20
2019-03-16T10:03:52.716Z,1.80
2019-03-16T10:06:21.013Z,1.83
2019-03-16T10:08:49.248Z,2.03
2019-03-16T10:11:17.502Z,1.37
2019-03-16T10:13:45.732Z,1.70
2019-03-16T10:16:14.120Z,1.70
2019-03-16T10:18:42.340Z,2.60
2019-03-16T10:21:10.618Z,2.73
2019-03-16T10:23:38.861Z,2.77
2019-03-16T10:26:07.092Z,2.73
2019-03-16T10:28:43.725Z,3.20
2019-03-16T10:31:23.840Z,4.10
2019-03-16T10:33:52.078Z,3.90
2019-03-16T10:36:20.339Z,3.90
2019-03-16T10:38:48.581Z,3.70
2019-03-16T10:41:35.246Z,3.13
2019-03-16T10:44:21.433Z,3.13
2019-03-16T10:46:49.874Z,3.57
2019-03-16T10:49:18.112Z,3.60
2019-03-16T10:51:46.370Z,3.00
2019-03-16T10:54:32.878Z,2.70
2019-03-16T10:57:01.129Z,2.77
2019-03-16T11:00:05.934Z,3.07
2019-03-16T11:02:34.217Z,2.93
2019-03-16T11:05:02.467Z,2.83
2019-03-16T11:10:34.977Z,2.97
2019-03-16T11:13:03.241Z,2.47
2019-03-16T11:15:31.552Z,2.60
2019-03-16T11:20:45.941Z,2.70
2019-03-16T11:23:32.382Z,2.97
2019-03-16T11:26:00.638Z,2.10
2019-03-16T11:28:46.732Z,2.70
2019-03-16T11:31:15.001Z,2.50
2019-03-16T11:33:43.295Z,2.57
2019-03-16T11:36:11.589Z,2.43
2019-03-16T11:38:39.858Z,2.67
2019-03-16T11:41:08.088Z,2.07
2019-03-16T11:43:54.453Z,2.30
2019-03-16T11:46:22.692Z,2.53
2019-03-16T11:48:50.968Z,2.00
2019-03-16T11:51:19.193Z,2.27
2019-03-16T11:54:05.672Z,2.33
2019-03-16T11:56:33.920Z,2.80
2019-03-16T11:59:02.236Z,2.37
2019-03-16T12:01:30.574Z,2.50
2019-03-16T12:04:17.000Z,2.67
2019-03-16T12:07:03.447Z,2.67
2019-03-16T12:09:31.693Z,2.50
2019-03-16T12:11:59.945Z,2.13
2019-03-16T12:14:46.857Z,2.27
2019-03-16T12:17:51.710Z,2.40
2019-03-16T12:20:20.016Z,2.27
2019-03-16T12:23:06.740Z,2.57
2019-03-16T12:25:35.029Z,2.13
2019-03-16T12:28:03.304Z,2.97
2019-03-16T12:30:49.990Z,2.53
2019-03-16T12:33:19.252Z,2.53
2019-03-16T12:35:47.490Z,2.30
2019-03-16T12:38:15.716Z,2.73
2019-03-16T12:41:02.116Z,2.23
2019-03-16T12:43:48.205Z,2.70
2019-03-16T12:46:16.440Z,2.37
2019-03-16T12:48:44.717Z,2.43
2019-03-16T12:51:31.120Z,2.70
2019-03-16T12:53:59.520Z,2.60
2019-03-16T12:56:27.762Z,2.20
2019-03-16T12:58:55.992Z,2.47
2019-03-16T13:01:24.316Z,2.53
2019-03-16T13:03:52.600Z,2.60
2019-03-16T13:06:20.903Z,2.37
2019-03-16T13:08:49.161Z,1.97
2019-03-16T13:11:17.657Z,2.50
2019-03-16T13:14:40.692Z,2.40
2019-03-16T13:17:27.280Z,2.50
2019-03-16T13:20:14.493Z,2.23
2019-03-16T13:23:00.958Z,2.63
2019-03-16T13:25:29.238Z,2.67
2019-03-16T13:28:16.968Z,2.03
2019-03-16T13:30:45.338Z,2.07
2019-03-16T13:33:13.582Z,2.47
2019-03-16T13:35:41.836Z,2.20
2019-03-16T13:38:10.104Z,2.27
2019-03-16T13:40:38.355Z,2.33
2019-03-16T13:45:53.049Z,2.40
2019-03-16T13:48:39.322Z,2.60
2019-03-16T13:51:07.560Z,2.30
2019-03-16T13:53:54.270Z,2.70
2019-03-16T13:56:22.489Z,2.63
2019-03-16T13:59:09.172Z,3.07
2019-03-16T14:01:37.856Z,5.20
2019-03-16T14:04:06.118Z,8.70
2019-03-16T14:06:34.368Z,9.03
2019-03-16T14:09:21.304Z,7.40
2019-03-16T14:11:49.956Z,8.10
2019-03-16T14:14:18.185Z,17.10
2019-03-16T14:17:04.270Z,19.53
2019-03-16T14:19:32.552Z,20.03
2019-03-16T14:22:00.792Z,19.43
2019-03-16T14:24:29.023Z,18.00
2019-03-16T14:30:02.640Z,16.53
2019-03-16T14:35:17.176Z,18.10
2019-03-16T14:40:50.057Z,16.17
2019-03-16T14:43:36.461Z,16.73
2019-03-16T14:46:23.077Z,16.60
2019-03-16T14:48:51.325Z,15.73
2019-03-16T14:51:37.917Z,15.93
2019-03-16T14:54:24.625Z,15.23
2019-03-16T14:56:52.941Z,14.60
2019-03-16T14:59:21.290Z,14.07
2019-03-16T15:01:49.672Z,13.77
2019-03-16T15:04:36.281Z,13.67
2019-03-16T15:07:04.547Z,13.97
2019-03-16T15:09:52.218Z,13.43
2019-03-16T15:12:29.206Z,13.83
2019-03-16T15:14:57.477Z,12.90
2019-03-16T15:17:43.916Z,12.57
2019-03-16T15:20:12.464Z,12.03
2019-03-16T15:22:40.702Z,12.73
2019-03-16T15:25:11.565Z,11.70
2019-03-16T15:27:40.137Z,10.60
2019-03-16T15:30:26.421Z,11.87
2019-03-16T15:32:54.689Z,10.10
2019-03-16T15:35:59.186Z,11.03
2019-03-16T15:38:27.446Z,8.83
2019-03-16T15:40:55.688Z,8.30
2019-03-16T15:43:42.198Z,7.63
2019-03-16T15:46:10.489Z,8.50
2019-03-16T15:48:38.726Z,8.03
2019-03-16T15:51:25.802Z,8.03
2019-03-16T15:54:12.128Z,8.07
2019-03-16T15:56:40.421Z,7.97
2019-03-16T15:59:27.010Z,7.27
2019-03-16T16:01:55.330Z,7.73
2019-03-16T16:04:23.553Z,7.80
2019-03-16T16:07:28.189Z,7.03
2019-03-16T16:09:56.436Z,7.77
2019-03-16T16:15:13.112Z,6.60
2019-03-16T16:17:41.337Z,5.80
2019-03-16T16:20:27.805Z,5.67
2019-03-16T16:22:56.095Z,4.87
2019-03-16T16:25:24.334Z,5.13
2019-03-16T16:27:52.574Z,4.37
2019-03-16T16:30:21.892Z,4.90
2019-03-16T16:33:08.620Z,4.57
2019-03-16T16:35:36.884Z,4.83
2019-03-16T16:38:22.944Z,5.17
2019-03-16T16:40:51.201Z,5.27
2019-03-16T16:43:19.425Z,5.10
2019-03-16T16:45:48.127Z,5.00
2019-03-16T16:48:16.557Z,4.70
2019-03-16T16:50:44.783Z,4.63
2019-03-16T16:53:13.072Z,4.50
2019-03-16T16:55:59.685Z,4.53
2019-03-16T16:58:27.931Z,4.80
2019-03-16T17:01:14.686Z,4.37
2019-03-16T17:03:42.941Z,4.77
2019-03-16T17:06:29.665Z,4.40
2019-03-16T17:09:16.441Z,4.70
2019-03-16T17:12:02.646Z,4.50
2019-03-16T17:14:30.877Z,4.50
2019-03-16T17:17:16.954Z,4.70
2019-03-16T17:19:45.189Z,4.50
2019-03-16T17:22:32.268Z,4.47
